createdAt,value
2023-04-10T00:00:41.794Z,91.93
2023-04-10T00:03:12.906Z,137.57
2023-04-10T00:05:43.264Z,143.05
2023-04-10T00:08:13.419Z,116.40
2023-04-10T00:10:43.670Z,177.55
2023-04-10T00:13:14.433Z,183.43
2023-04-10T00:15:44.687Z,159.77
2023-04-10T00:18:14.942Z,149.23
2023-04-10T00:20:45.149Z,132.52
2023-04-10T00:23:15.658Z,110.93
2023-04-10T00:25:48.461Z,102.22
2023-04-10T00:28:18.695Z,102.95
2023-04-10T00:30:47.127Z,92.22
2023-04-10T00:33:15.599Z,92.55
2023-04-10T00:35:47.273Z,82.65
2023-04-10T00:38:15.508Z,80.82
2023-04-10T00:40:43.959Z,80.43
2023-04-10T00:43:12.341Z,74.20
2023-04-10T00:45:41.933Z,74.22
2023-04-10T00:48:09.344Z,72.38
2023-04-10T00:50:38.046Z,69.00
2023-04-10T00:53:06.064Z,64.22
2023-04-10T00:55:34.485Z,76.85
2023-04-10T00:58:03.177Z,73.53
2023-04-10T01:00:31.371Z,69.95
2023-04-10T01:03:01.939Z,63.80
2023-04-10T01:05:51.308Z,64.05
2023-04-10T01:08:36.788Z,65.07
2023-04-10T01:12:15.946Z,65.70
2023-04-10T01:15:04.648Z,60.45
2023-04-10T01:17:56.527Z,60.65
2023-04-10T01:20:34.972Z,57.28
2023-04-10T01:23:46.498Z,54.75
2023-04-10T01:26:39.607Z,61.15
2023-04-10T01:29:23.278Z,56.42
2023-04-10T01:32:05.022Z,61.00
2023-04-10T01:34:48.336Z,62.00
2023-04-10T01:37:31.392Z,59.40
2023-04-10T01:40:09.851Z,60.08
2023-04-10T01:42:50.722Z,58.13
2023-04-10T01:45:29.176Z,59.60
2023-04-10T01:47:58.521Z,61.10
2023-04-10T01:50:30.770Z,55.58
2023-04-10T01:53:06.966Z,67.68
2023-04-10T01:55:41.284Z,62.13
2023-04-10T01:58:10.862Z,61.13
2023-04-10T02:00:43.615Z,58.63
2023-04-10T02:03:14.056Z,54.42
2023-04-10T02:06:29.731Z,61.08
2023-04-10T02:09:37.825Z,53.05
2023-04-10T02:12:22.687Z,63.28
2023-04-10T02:14:57.678Z,54.92
2023-04-10T02:17:32.879Z,57.90
2023-04-10T02:20:07.965Z,60.47
2023-04-10T02:22:45.236Z,58.85
2023-04-10T02:25:16.935Z,54.63
2023-04-10T02:27:46.830Z,65.47
2023-04-10T02:30:15.212Z,55.28
2023-04-10T02:32:44.323Z,59.63
2023-04-10T02:35:12.233Z,58.05
2023-04-10T02:37:40.481Z,60.90
2023-04-10T02:40:09.897Z,61.78
2023-04-10T02:42:37.157Z,60.00
2023-04-10T02:45:06.785Z,53.80
2023-04-10T02:47:33.983Z,52.95
2023-04-10T02:50:02.591Z,55.90
2023-04-10T02:52:31.033Z,60.90
2023-04-10T02:54:59.188Z,53.70
2023-04-10T02:57:28.872Z,59.15
2023-04-10T02:59:56.050Z,56.15
2023-04-10T03:02:24.564Z,54.85
2023-04-10T03:04:53.810Z,63.22
2023-04-10T03:07:21.610Z,61.95
2023-04-10T03:09:49.730Z,64.93
2023-04-10T03:12:18.624Z,67.85
2023-04-10T03:14:46.740Z,62.53
2023-04-10T03:17:14.906Z,63.72
2023-04-10T03:19:43.397Z,66.53
2023-04-10T03:22:11.859Z,65.03
2023-04-10T03:24:41.206Z,64.10
2023-04-10T03:27:08.677Z,62.58
2023-04-10T03:29:37.056Z,62.55
2023-04-10T03:32:06.278Z,62.75
2023-04-10T03:34:33.834Z,66.07
2023-04-10T03:37:03.299Z,68.90
2023-04-10T03:39:30.806Z,61.53
2023-04-10T03:41:59.152Z,58.20
2023-04-10T03:44:27.520Z,67.45
2023-04-10T03:46:55.946Z,64.80
2023-04-10T03:49:24.327Z,67.63
2023-04-10T03:51:53.521Z,66.95
2023-04-10T03:54:21.309Z,62.78
2023-04-10T03:56:49.623Z,62.80
2023-04-10T03:59:18.085Z,60.78
2023-04-10T04:01:46.619Z,65.32
2023-04-10T04:04:15.044Z,64.93
2023-04-10T04:06:43.322Z,68.20
2023-04-10T04:09:11.861Z,64.50
2023-04-10T04:11:40.120Z,67.65
2023-04-10T04:14:08.646Z,72.38
2023-04-10T04:16:37.060Z,59.45
2023-04-10T04:19:05.359Z,60.03
2023-04-10T04:21:34.007Z,70.22
2023-04-10T04:24:02.217Z,66.93
2023-04-10T04:26:31.308Z,76.75
2023-04-10T04:28:59.190Z,67.45
2023-04-10T04:31:32.676Z,65.53
2023-04-10T04:34:03.300Z,68.80
2023-04-10T04:36:33.446Z,71.57
2023-04-10T04:39:03.631Z,72.50
2023-04-10T04:41:34.165Z,67.43
2023-04-10T04:44:06.639Z,68.70
2023-04-10T04:46:36.795Z,64.40
2023-04-10T04:49:06.972Z,69.55
2023-04-10T04:51:38.358Z,63.80
2023-04-10T04:54:08.537Z,65.10
2023-04-10T04:56:38.690Z,61.92
2023-04-10T04:59:08.849Z,72.07
2023-04-10T05:01:39.267Z,71.03
2023-04-10T05:04:09.725Z,64.68
2023-04-10T05:06:39.945Z,62.40
2023-04-10T05:09:10.117Z,67.05
2023-04-10T05:11:40.539Z,60.72
2023-04-10T05:14:10.950Z,58.58
2023-04-10T05:16:41.385Z,57.85
2023-04-10T05:19:11.578Z,58.40
2023-04-10T05:21:41.802Z,59.00
2023-04-10T05:24:12.100Z,65.70
2023-04-10T05:26:42.788Z,67.20
2023-04-10T05:29:12.946Z,59.08
2023-04-10T05:31:43.110Z,57.53
2023-04-10T05:34:13.365Z,53.55
2023-04-10T05:36:43.921Z,54.15
2023-04-10T05:39:14.172Z,48.67
2023-04-10T05:41:44.354Z,59.88
2023-04-10T05:44:14.517Z,58.70
2023-04-10T05:46:44.875Z,52.03
2023-04-10T05:49:15.477Z,55.67
2023-04-10T05:51:50.474Z,54.45
2023-04-10T05:54:20.660Z,57.95
2023-04-10T05:56:50.849Z,56.90
2023-04-10T05:59:21.012Z,56.47
2023-04-10T06:01:51.203Z,58.70
2023-04-10T06:04:24.410Z,57.85
2023-04-10T06:06:55.385Z,54.13
2023-04-10T06:09:25.938Z,61.00
2023-04-10T06:11:56.809Z,61.10
2023-04-10T06:14:24.502Z,56.95
2023-04-10T06:16:52.907Z,55.22
2023-04-10T06:19:21.795Z,59.30
2023-04-10T06:21:49.765Z,58.53
2023-04-10T06:24:18.204Z,53.28
2023-04-10T06:26:46.595Z,67.45
2023-04-10T06:29:15.201Z,61.50
2023-04-10T06:31:44.693Z,54.10
2023-04-10T06:34:14.880Z,57.78
2023-04-10T06:36:43.240Z,57.40
2023-04-10T06:39:11.695Z,59.60
2023-04-10T06:41:40.161Z,61.63
2023-04-10T06:44:08.581Z,60.10
2023-04-10T06:46:36.990Z,71.07
2023-04-10T06:49:05.405Z,67.65
2023-04-10T06:51:33.762Z,73.72
2023-04-10T06:54:02.276Z,70.10
2023-04-10T06:56:30.667Z,69.13
2023-04-10T06:58:59.113Z,67.25
2023-04-10T07:01:27.510Z,66.63
2023-04-10T07:03:56.470Z,66.18
2023-04-10T07:06:24.382Z,59.33
2023-04-10T07:08:52.947Z,66.32
2023-04-10T07:11:21.284Z,58.60
2023-04-10T07:13:53.956Z,61.75
2023-04-10T07:16:24.223Z,62.83
2023-04-10T07:18:54.625Z,63.78
2023-04-10T07:21:25.037Z,68.55
2023-04-10T07:23:55.823Z,63.08
2023-04-10T07:26:26.356Z,68.40
2023-04-10T07:28:56.662Z,58.83
2023-04-10T07:31:27.016Z,64.65
2023-04-10T07:33:57.327Z,59.55
2023-04-10T07:36:27.868Z,59.25
2023-04-10T07:38:58.019Z,61.33
2023-04-10T07:41:28.211Z,59.83
2023-04-10T07:43:58.392Z,60.83
2023-04-10T07:46:28.499Z,65.13
2023-04-10T07:48:57.036Z,59.65
2023-04-10T07:51:26.100Z,58.20
2023-04-10T07:53:53.810Z,59.00
2023-04-10T07:56:23.431Z,58.15
2023-04-10T07:58:52.425Z,55.15
2023-04-10T08:01:22.082Z,59.92
2023-04-10T08:03:50.621Z,53.65
2023-04-10T08:06:18.955Z,56.53
2023-04-10T08:08:47.583Z,50.67
2023-04-10T08:11:42.062Z,54.60
2023-04-10T08:14:13.629Z,55.15
2023-04-10T08:16:48.806Z,53.63
2023-04-10T08:19:19.046Z,56.25
2023-04-10T08:21:49.188Z,55.28
2023-04-10T08:24:21.567Z,55.67
2023-04-10T08:26:51.712Z,53.65
2023-04-10T08:31:53.007Z,48.20
2023-04-10T08:34:24.592Z,50.97
2023-04-10T08:36:55.676Z,53.50
2023-04-10T08:39:26.264Z,51.40
2023-04-10T08:41:56.455Z,47.20
2023-04-10T08:44:26.633Z,48.17
2023-04-10T08:47:01.405Z,46.28
2023-04-10T08:50:02.148Z,48.28
2023-04-10T08:52:43.964Z,50.10
2023-04-10T08:55:15.877Z,49.67
2023-04-10T08:57:50.845Z,46.42
2023-04-10T09:00:31.750Z,39.92
2023-04-10T09:03:00.282Z,41.35
2023-04-10T09:05:31.671Z,41.80
2023-04-10T09:08:01.157Z,36.38
2023-04-10T09:10:31.867Z,40.75
2023-04-10T09:12:59.813Z,38.75
2023-04-10T09:15:28.637Z,31.00
2023-04-10T09:18:03.969Z,32.28
2023-04-10T09:20:34.173Z,29.88
2023-04-10T09:23:24.708Z,27.95
2023-04-10T09:25:52.605Z,29.30
2023-04-10T09:28:22.578Z,31.33
2023-04-10T09:30:52.240Z,29.98
2023-04-10T09:33:25.499Z,29.48
2023-04-10T09:36:04.377Z,28.27
2023-04-10T09:38:35.516Z,31.25
2023-04-10T09:41:09.360Z,28.60
2023-04-10T09:43:39.309Z,25.90
2023-04-10T09:46:09.431Z,26.10
2023-04-10T09:48:57.197Z,24.48
2023-04-10T09:51:34.895Z,29.27
2023-04-10T09:54:05.248Z,26.98
2023-04-10T09:56:40.299Z,32.25
2023-04-10T09:59:11.675Z,27.80
2023-04-10T10:01:42.679Z,27.95
2023-04-10T10:04:15.814Z,27.77
2023-04-10T10:06:46.977Z,24.85
2023-04-10T10:09:17.903Z,27.10
2023-04-10T10:11:52.690Z,31.75
2023-04-10T10:14:29.072Z,28.20
2023-04-10T10:17:12.365Z,26.70
2023-04-10T10:20:01.162Z,25.38
2023-04-10T10:22:33.233Z,25.10
2023-04-10T10:25:04.962Z,21.80
2023-04-10T10:27:41.578Z,20.58
2023-04-10T10:30:28.165Z,24.73
2023-04-10T10:33:05.962Z,26.07
2023-04-10T10:35:38.010Z,24.17
2023-04-10T10:38:09.287Z,23.85
2023-04-10T10:40:55.852Z,19.20
2023-04-10T10:43:56.001Z,18.23
2023-04-10T10:47:33.134Z,18.23
2023-04-10T10:50:04.712Z,22.27
2023-04-10T10:52:51.351Z,25.75
2023-04-10T10:55:37.142Z,21.13
2023-04-10T10:58:11.606Z,19.70
2023-04-10T11:00:50.953Z,19.83
2023-04-10T11:03:22.669Z,21.25
2023-04-10T11:06:04.261Z,18.95
2023-04-10T11:08:34.189Z,25.77
2023-04-10T11:11:25.240Z,23.42
2023-04-10T11:13:58.261Z,18.95
2023-04-10T11:16:36.115Z,18.63
2023-04-10T11:19:16.269Z,22.23
2023-04-10T11:22:08.164Z,22.15
2023-04-10T11:25:02.731Z,18.08
2023-04-10T11:27:49.438Z,19.95
2023-04-10T11:30:28.597Z,18.35
2023-04-10T11:33:01.888Z,19.98
2023-04-10T11:35:33.719Z,21.90
2023-04-10T11:38:18.336Z,22.45
2023-04-10T11:41:04.540Z,21.17
2023-04-10T11:43:35.516Z,22.35
2023-04-10T11:46:08.181Z,21.33
2023-04-10T11:48:38.720Z,19.38
2023-04-10T11:51:14.899Z,19.65
2023-04-10T11:53:43.442Z,19.48
2023-04-10T11:56:22.162Z,25.00
2023-04-10T11:58:55.540Z,17.42
2023-04-10T12:01:24.256Z,17.90
2023-04-10T12:03:52.587Z,23.80
2023-04-10T12:06:22.072Z,17.75
2023-04-10T12:08:52.846Z,20.65
2023-04-10T12:11:24.923Z,19.85
2023-04-10T12:13:58.288Z,17.73
2023-04-10T12:16:28.791Z,17.88
2023-04-10T12:18:59.536Z,14.00
2023-04-10T12:21:29.921Z,17.08
2023-04-10T12:24:00.105Z,19.90
2023-04-10T12:26:30.883Z,14.80
2023-04-10T12:29:01.165Z,17.33
2023-04-10T12:31:35.779Z,17.52
2023-04-10T12:34:08.519Z,14.73
2023-04-10T12:36:39.968Z,15.00
2023-04-10T12:39:25.197Z,15.40
2023-04-10T12:42:22.766Z,15.30
2023-04-10T12:45:01.293Z,13.50
2023-04-10T12:47:31.067Z,13.45
2023-04-10T12:50:13.860Z,14.73
2023-04-10T12:53:01.758Z,15.50
2023-04-10T12:55:31.415Z,15.63
2023-04-10T12:57:59.033Z,15.15
2023-04-10T13:00:27.345Z,13.48
2023-04-10T13:02:56.023Z,15.35
2023-04-10T13:05:25.375Z,14.30
2023-04-10T13:07:53.041Z,16.98
2023-04-10T13:10:22.121Z,15.40
2023-04-10T13:12:49.688Z,16.23
2023-04-10T13:15:18.179Z,14.68
2023-04-10T13:17:46.613Z,15.75
2023-04-10T13:20:15.132Z,14.05
2023-04-10T13:22:43.602Z,16.83
2023-04-10T13:25:11.901Z,16.33
2023-04-10T13:27:40.558Z,18.05
2023-04-10T13:30:09.601Z,15.52
2023-04-10T13:32:38.873Z,17.55
2023-04-10T13:35:08.355Z,15.95
2023-04-10T13:37:35.893Z,15.90
2023-04-10T13:40:05.391Z,19.92
2023-04-10T13:42:32.578Z,22.63
2023-04-10T13:45:01.608Z,15.32
2023-04-10T13:47:29.456Z,17.63
2023-04-10T13:49:57.768Z,14.25
2023-04-10T13:52:26.297Z,15.90
2023-04-10T13:54:54.815Z,14.90
2023-04-10T13:57:23.125Z,14.73
2023-04-10T13:59:51.638Z,14.70
2023-04-10T14:02:20.192Z,15.07
2023-04-10T14:04:51.464Z,12.02
2023-04-10T14:07:21.618Z,19.20
2023-04-10T14:09:51.896Z,13.73
2023-04-10T14:12:23.539Z,12.23
2023-04-10T14:14:54.031Z,13.98
2023-04-10T14:17:24.864Z,14.25
2023-04-10T14:19:54.176Z,11.80
2023-04-10T14:22:24.198Z,12.50
2023-04-10T14:24:58.924Z,15.02
2023-04-10T14:27:35.741Z,14.50
2023-04-10T14:30:07.319Z,13.93
2023-04-10T14:32:36.250Z,17.48
2023-04-10T14:35:07.738Z,14.13
2023-04-10T14:37:39.088Z,14.68
2023-04-10T14:40:10.435Z,13.45
2023-04-10T14:42:40.736Z,15.60
2023-04-10T14:45:11.361Z,16.15
2023-04-10T14:47:41.983Z,12.73
2023-04-10T14:50:12.461Z,16.00
2023-04-10T14:52:42.568Z,15.07
2023-04-10T14:55:12.739Z,15.27
2023-04-10T14:57:42.853Z,13.20
2023-04-10T15:00:13.640Z,12.27
2023-04-10T15:02:44.050Z,14.98
2023-04-10T15:05:14.603Z,14.80
2023-04-10T15:07:44.715Z,18.17
2023-04-10T15:10:14.962Z,13.25
2023-04-10T15:12:45.088Z,13.35
2023-04-10T15:15:15.454Z,13.60
2023-04-10T15:17:45.740Z,16.73
2023-04-10T15:20:16.152Z,12.88
2023-04-10T15:22:48.318Z,12.07
2023-04-10T15:25:18.509Z,12.85
2023-04-10T15:27:48.622Z,11.93
2023-04-10T15:30:19.459Z,11.55
2023-04-10T15:32:49.745Z,13.20
2023-04-10T15:35:21.123Z,13.75
2023-04-10T15:37:51.491Z,14.25
2023-04-10T15:40:21.688Z,15.00
2023-04-10T15:42:51.850Z,12.65
2023-04-10T15:45:22.056Z,13.15
2023-04-10T15:47:52.301Z,13.25
2023-04-10T15:50:22.453Z,13.73
2023-04-10T15:52:52.711Z,13.43
2023-04-10T15:55:22.844Z,11.85
2023-04-10T15:57:51.312Z,11.40
2023-04-10T16:00:20.464Z,13.38
2023-04-10T16:02:48.295Z,14.73
2023-04-10T16:05:16.624Z,13.55
2023-04-10T16:07:45.034Z,12.93
2023-04-10T16:10:13.410Z,12.10
2023-04-10T16:12:42.519Z,12.23
2023-04-10T16:15:11.112Z,11.93
2023-04-10T16:17:40.026Z,11.90
2023-04-10T16:20:08.819Z,11.48
2023-04-10T16:22:36.765Z,12.32
2023-04-10T16:25:05.542Z,12.25
2023-04-10T16:27:33.051Z,12.70
2023-04-10T16:30:01.743Z,13.70
2023-04-10T16:32:31.680Z,11.70
2023-04-10T16:35:02.168Z,13.23
2023-04-10T16:37:32.334Z,13.38
2023-04-10T16:40:02.683Z,13.18
2023-04-10T16:42:32.893Z,13.27
2023-04-10T16:45:03.184Z,13.25
2023-04-10T16:47:33.314Z,12.65
2023-04-10T16:50:03.709Z,12.25
2023-04-10T16:52:34.515Z,13.13
2023-04-10T16:55:05.290Z,14.32
2023-04-10T16:57:35.702Z,13.95
2023-04-10T17:00:07.254Z,19.58
2023-04-10T17:02:37.714Z,13.45
2023-04-10T17:05:08.101Z,12.07
2023-04-10T17:07:36.319Z,12.95
2023-04-10T17:10:05.631Z,12.70
2023-04-10T17:12:33.297Z,12.25
2023-04-10T17:15:01.764Z,13.07
2023-04-10T17:17:30.187Z,13.27
2023-04-10T17:19:58.708Z,10.85
2023-04-10T17:22:26.914Z,11.85
2023-04-10T17:24:55.335Z,13.23
2023-04-10T17:27:23.787Z,12.57
2023-04-10T17:29:52.247Z,10.90
2023-04-10T17:32:20.701Z,13.30
2023-04-10T17:34:49.045Z,11.35
2023-04-10T17:37:19.888Z,12.25
2023-04-10T17:39:51.905Z,11.77
2023-04-10T17:42:23.306Z,14.07
2023-04-10T17:44:53.529Z,12.65
2023-04-10T17:47:23.376Z,11.63
2023-04-10T17:49:53.234Z,13.43
2023-04-10T17:52:24.148Z,12.98
2023-04-10T17:54:54.391Z,11.55
2023-04-10T17:57:23.988Z,13.02
2023-04-10T17:59:52.337Z,15.57
2023-04-10T18:02:20.883Z,12.30
2023-04-10T18:04:49.121Z,15.10
2023-04-10T18:07:17.588Z,13.73
2023-04-10T18:09:45.985Z,13.73
2023-04-10T18:12:19.409Z,13.90
2023-04-10T18:14:48.866Z,13.07
2023-04-10T18:17:17.291Z,13.23
2023-04-10T18:19:45.729Z,13.68
2023-04-10T18:22:14.032Z,13.77
2023-04-10T18:24:42.487Z,15.60
2023-04-10T18:27:10.894Z,12.43
2023-04-10T18:29:39.528Z,14.60
2023-04-10T18:32:07.898Z,13.98
2023-04-10T18:34:36.361Z,15.48
2023-04-10T18:37:04.628Z,16.50
2023-04-10T18:39:33.102Z,16.73
2023-04-10T18:42:02.968Z,15.95
2023-04-10T18:44:34.717Z,17.77
2023-04-10T18:47:04.781Z,16.90
2023-04-10T18:49:35.295Z,16.33
2023-04-10T18:52:05.061Z,16.27
2023-04-10T18:54:36.158Z,18.27
2023-04-10T18:57:07.710Z,15.27
2023-04-10T18:59:38.009Z,16.70
2023-04-10T19:02:09.115Z,17.35
2023-04-10T19:04:39.539Z,16.40
2023-04-10T19:07:09.381Z,14.82
2023-04-10T19:09:39.492Z,15.35
2023-04-10T19:12:14.465Z,14.88
2023-04-10T19:14:44.626Z,15.45
2023-04-10T19:17:14.285Z,14.38
2023-04-10T19:19:44.797Z,14.93
2023-04-10T19:22:15.272Z,15.73
2023-04-10T19:24:45.752Z,16.90
2023-04-10T19:27:15.485Z,16.60
2023-04-10T19:29:45.521Z,14.95
2023-04-10T19:32:15.266Z,13.98
2023-04-10T19:34:51.312Z,16.67
2023-04-10T19:37:21.674Z,17.08
2023-04-10T19:39:49.754Z,12.85
2023-04-10T19:42:19.676Z,14.52
2023-04-10T19:44:49.475Z,16.73
2023-04-10T19:47:19.452Z,13.95
2023-04-10T19:49:48.300Z,12.75
2023-04-10T19:52:18.119Z,17.08
2023-04-10T19:54:47.871Z,15.82
2023-04-10T19:57:17.742Z,17.27
2023-04-10T19:59:47.484Z,17.42
2023-04-10T20:02:18.268Z,14.50
2023-04-10T20:04:48.818Z,15.88
2023-04-10T20:07:19.193Z,15.55
2023-04-10T20:09:48.924Z,14.75
2023-04-10T20:12:18.825Z,13.88
2023-04-10T20:14:48.579Z,15.30
2023-04-10T20:17:18.403Z,12.93
2023-04-10T20:19:48.066Z,14.88
2023-04-10T20:22:18.018Z,13.57
2023-04-10T20:24:47.838Z,14.63
2023-04-10T20:27:18.063Z,13.40
2023-04-10T20:29:48.094Z,13.70
2023-04-10T20:32:18.006Z,12.73
2023-04-10T20:34:47.348Z,13.88
2023-04-10T20:37:18.859Z,14.18
2023-04-10T20:39:46.086Z,13.70
2023-04-10T20:42:17.208Z,14.48
2023-04-10T20:44:47.355Z,13.43
2023-04-10T20:47:17.127Z,11.52
2023-04-10T20:49:46.973Z,16.25
2023-04-10T20:52:16.721Z,16.40
2023-04-10T20:54:46.639Z,17.30
2023-04-10T20:57:16.434Z,16.20
2023-04-10T20:59:46.310Z,14.00
2023-04-10T21:02:18.203Z,12.93
2023-04-10T21:04:50.355Z,15.15
2023-04-10T21:07:20.267Z,13.30
2023-04-10T21:09:50.029Z,13.18
2023-04-10T21:12:19.899Z,13.63
2023-04-10T21:14:49.798Z,11.90
2023-04-10T21:17:20.046Z,13.00
2023-04-10T21:19:50.134Z,12.90
2023-04-10T21:22:19.900Z,12.18
2023-04-10T21:24:48.352Z,14.15
2023-04-10T21:27:17.062Z,14.27
2023-04-10T21:29:45.932Z,15.85
2023-04-10T21:32:13.636Z,13.38
2023-04-10T21:34:42.028Z,13.10
2023-04-10T21:37:10.548Z,13.07
2023-04-10T21:39:43.485Z,14.38
2023-04-10T21:42:19.450Z,15.38
2023-04-10T21:44:49.519Z,11.60
2023-04-10T21:47:19.358Z,13.07
2023-04-10T21:49:47.688Z,13.80
2023-04-10T21:52:16.137Z,14.55
2023-04-10T21:54:44.546Z,14.45
2023-04-10T21:57:12.986Z,14.48
2023-04-10T21:59:41.435Z,13.38
2023-04-10T22:02:11.065Z,14.48
2023-04-10T22:04:51.492Z,13.95
2023-04-10T22:07:24.091Z,11.93
2023-04-10T22:09:54.212Z,15.57
2023-04-10T22:12:23.669Z,14.68
2023-04-10T22:14:53.370Z,14.75
2023-04-10T22:17:23.840Z,13.70
2023-04-10T22:19:53.462Z,14.02
2023-04-10T22:22:23.190Z,14.18
2023-04-10T22:24:52.872Z,13.07
2023-04-10T22:27:24.289Z,15.13
2023-04-10T22:30:02.643Z,13.85
2023-04-10T22:32:32.940Z,14.43
2023-04-10T22:35:03.201Z,13.85
2023-04-10T22:37:32.997Z,13.52
2023-04-10T22:40:03.101Z,12.07
2023-04-10T22:42:31.960Z,14.45
2023-04-10T22:45:00.971Z,13.85
2023-04-10T22:47:28.231Z,16.20
2023-04-10T22:49:57.923Z,14.63
2023-04-10T22:52:27.778Z,13.50
2023-04-10T22:54:57.963Z,12.70
2023-04-10T22:57:27.724Z,13.48
2023-04-10T22:59:59.488Z,15.30
2023-04-10T23:02:28.213Z,13.00
2023-04-10T23:04:58.211Z,13.55
2023-04-10T23:07:28.073Z,12.82
2023-04-10T23:09:58.305Z,13.98
2023-04-10T23:12:28.291Z,14.15
2023-04-10T23:14:58.061Z,14.32
2023-04-10T23:17:27.776Z,15.98
2023-04-10T23:19:57.584Z,12.77
2023-04-10T23:22:29.806Z,14.45
2023-04-10T23:24:59.782Z,14.15
2023-04-10T23:27:29.612Z,15.38
2023-04-10T23:29:59.882Z,14.90
2023-04-10T23:32:29.819Z,12.75
2023-04-10T23:34:59.897Z,13.23
2023-04-10T23:37:29.713Z,14.57
2023-04-10T23:39:59.845Z,14.27
2023-04-10T23:42:29.208Z,13.50
2023-04-10T23:44:58.982Z,13.50
2023-04-10T23:47:28.871Z,15.95
2023-04-10T23:49:58.924Z,16.50
2023-04-10T23:52:29.178Z,15.07
2023-04-10T23:55:02.349Z,14.88
2023-04-10T23:57:31.870Z,13.48
